Time;durP1;ratioP1;P1;durP2;ratioP2;P2;SDS_P1;SDS_P2;PMS_P1;PMS_P2;Temp;Humidity;BMP_temperature;BMP_pressure;BME280_temperature;BME280_humidity;BME280_pressure;Samples;Min_cycle;Max_cycle;Signal;HPM_P1;HPM_P2
2022/09/11 00:00:59;;;;;;;4.60;4.07;;;;;;;;;;5100573;28;20044;-85
2022/09/11 00:03:28;;;;;;;10.25;4.20;;;;;;;;;;5098580;28;20044;-86
2022/09/11 00:05:56;;;;;;;4.28;3.88;;;;;;;;;;5101731;28;20078;-85
2022/09/11 00:08:23;;;;;;;5.55;3.80;;;;;;;;;;5099413;28;20072;-86
2022/09/11 00:10:50;;;;;;;3.70;3.40;;;;;;;;;;5101482;28;20127;-85
2022/09/11 00:13:20;;;;;;;5.38;3.75;;;;;;;;;;5101346;28;20075;-85
2022/09/11 00:15:48;;;;;;;3.45;3.25;;;;;;;;;;5102272;28;20265;-85
2022/09/11 00:18:16;;;;;;;3.53;3.30;;;;;;;;;;5103405;28;20502;-86
2022/09/11 00:20:48;;;;;;;3.58;2.85;;;;;;;;;;5104114;28;20067;-86
2022/09/11 00:23:16;;;;;;;3.90;3.60;;;;;;;;;;5090915;28;20461;-85
2022/09/11 00:25:45;;;;;;;6.13;3.67;;;;;;;;;;5088895;28;20048;-84
2022/09/11 00:28:33;;;;;;;3.70;3.42;;;;;;;;;;5089211;28;20060;-84
2022/09/11 00:31:20;;;;;;;5.90;4.40;;;;;;;;;;5090815;28;20139;-84
2022/09/11 00:33:48;;;;;;;5.40;4.82;;;;;;;;;;5089889;28;20118;-84
2022/09/11 00:36:16;;;;;;;4.63;4.13;;;;;;;;;;5089859;28;20071;-85
2022/09/11 00:38:45;;;;;;;6.28;4.65;;;;;;;;;;5090512;28;20151;-85
2022/09/11 00:41:13;;;;;;;5.60;4.57;;;;;;;;;;5090670;28;20048;-84
2022/09/11 00:43:50;;;;;;;4.80;4.40;;;;;;;;;;5090329;28;20131;-85
2022/09/11 00:46:17;;;;;;;8.73;4.95;;;;;;;;;;5091190;28;20131;-84
2022/09/11 00:48:49;;;;;;;7.07;5.07;;;;;;;;;;5093184;28;20079;-84
2022/09/11 00:51:18;;;;;;;4.90;4.50;;;;;;;;;;5091431;28;20408;-84
2022/09/11 00:53:46;;;;;;;4.60;4.20;;;;;;;;;;5093957;28;20064;-84
2022/09/11 00:56:13;;;;;;;4.85;4.30;;;;;;;;;;5092154;28;20486;-85
2022/09/11 00:58:42;;;;;;;7.75;4.57;;;;;;;;;;5092576;28;20044;-85
2022/09/11 01:01:10;;;;;;;6.07;4.45;;;;;;;;;;5093570;28;20048;-86
2022/09/11 01:03:37;;;;;;;4.55;4.15;;;;;;;;;;5094192;28;20052;-84
2022/09/11 01:06:05;;;;;;;8.40;5.40;;;;;;;;;;5088854;28;20132;-85
2022/09/11 01:08:33;;;;;;;6.97;5.60;;;;;;;;;;5081856;28;20137;-86
2022/09/11 01:11:12;;;;;;;5.68;5.18;;;;;;;;;;5081922;28;20052;-85
2022/09/11 01:14:03;;;;;;;7.78;5.68;;;;;;;;;;5080807;28;20136;-85
2022/09/11 01:16:48;;;;;;;7.15;6.22;;;;;;;;;;5071818;28;20083;-85
2022/09/11 01:19:15;;;;;;;6.10;5.50;;;;;;;;;;5076522;28;20058;-84
2022/09/11 01:22:00;;;;;;;6.72;5.10;;;;;;;;;;5074695;22;20049;-81
2022/09/11 01:24:37;;;;;;;5.43;4.93;;;;;;;;;;5040532;28;20060;-81
2022/09/11 01:27:07;;;;;;;7.30;4.70;;;;;;;;;;5041211;28;20059;-81
2022/09/11 01:29:39;;;;;;;4.07;3.78;;;;;;;;;;5039845;28;20057;-81
2022/09/11 01:32:20;;;;;;;4.38;3.97;;;;;;;;;;5038626;28;20054;-81
2022/09/11 01:35:03;;;;;;;4.20;3.90;;;;;;;;;;5039425;28;20049;-81
2022/09/11 01:37:49;;;;;;;4.15;3.80;;;;;;;;;;5039269;28;20051;-81
2022/09/11 01:40:19;;;;;;;3.90;3.53;;;;;;;;;;5040524;28;20060;-81
2022/09/11 01:42:49;;;;;;;4.38;3.60;;;;;;;;;;5040669;28;20057;-81
2022/09/11 01:45:16;;;;;;;6.47;3.25;;;;;;;;;;5039338;28;20518;-82
2022/09/11 01:47:44;;;;;;;3.58;3.28;;;;;;;;;;5038985;28;20049;-81
2022/09/11 01:50:13;;;;;;;4.18;3.78;;;;;;;;;;5040629;28;20060;-81
2022/09/11 01:52:49;;;;;;;4.25;3.33;;;;;;;;;;5040315;28;20071;-81
2022/09/11 01:55:19;;;;;;;6.78;3.08;;;;;;;;;;5039063;28;20046;-81
2022/09/11 01:57:49;;;;;;;3.80;2.92;;;;;;;;;;5038995;28;20046;-81
2022/09/11 02:00:16;;;;;;;3.13;2.92;;;;;;;;;;5039509;28;20051;-81
2022/09/11 02:02:50;;;;;;;7.82;3.65;;;;;;;;;;5038386;28;20556;-81
2022/09/11 02:05:21;;;;;;;4.47;3.45;;;;;;;;;;5037864;28;20059;-81
2022/09/11 02:07:51;;;;;;;6.28;3.30;;;;;;;;;;5038922;28;20607;-81
2022/09/11 02:10:23;;;;;;;2.50;2.35;;;;;;;;;;5046080;28;20045;-82
2022/09/11 02:12:57;;;;;;;2.53;2.42;;;;;;;;;;5059553;28;20097;-81
2022/09/11 02:15:28;;;;;;;2.58;2.45;;;;;;;;;;5058036;28;20089;-81
2022/09/11 02:18:02;;;;;;;3.08;2.85;;;;;;;;;;5058469;28;20049;-80
2022/09/11 02:20:30;;;;;;;3.72;3.42;;;;;;;;;;5058441;28;20054;-80
2022/09/11 02:22:57;;;;;;;3.40;2.88;;;;;;;;;;5059041;28;20076;-81
2022/09/11 02:25:24;;;;;;;4.95;3.30;;;;;;;;;;5046526;28;20059;-82
2022/09/11 02:27:53;;;;;;;3.25;2.70;;;;;;;;;;5039095;28;20516;-82
2022/09/11 02:30:20;;;;;;;2.90;2.75;;;;;;;;;;5040207;28;20045;-81
2022/09/11 02:32:47;;;;;;;3.97;2.95;;;;;;;;;;5039348;28;20045;-82
2022/09/11 02:35:15;;;;;;;2.53;2.38;;;;;;;;;;5039355;28;20401;-82
2022/09/11 02:37:45;;;;;;;4.97;2.72;;;;;;;;;;5039489;28;20045;-82
2022/09/11 02:40:30;;;;;;;5.55;2.92;;;;;;;;;;5038077;28;20050;-81
2022/09/11 02:43:07;;;;;;;2.95;2.75;;;;;;;;;;5036726;28;20050;-82
2022/09/11 02:46:01;;;;;;;2.35;2.25;;;;;;;;;;5035623;28;20094;-82
2022/09/11 02:48:42;;;;;;;3.55;2.58;;;;;;;;;;5032873;28;20425;-81
2022/09/11 02:51:18;;;;;;;2.65;2.45;;;;;;;;;;5032546;28;20053;-81
2022/09/11 02:53:48;;;;;;;4.40;3.08;;;;;;;;;;5032141;28;20056;-82
2022/09/11 02:56:34;;;;;;;3.05;2.63;;;;;;;;;;5035154;28;20128;-82
2022/09/11 02:59:06;;;;;;;3.78;3.42;;;;;;;;;;5038131;28;20046;-82
2022/09/11 03:01:53;;;;;;;5.28;3.20;;;;;;;;;;5037705;28;20056;-81
2022/09/11 03:04:23;;;;;;;2.17;2.08;;;;;;;;;;5037678;28;20507;-82
2022/09/11 03:06:51;;;;;;;3.60;2.30;;;;;;;;;;5038730;28;20050;-82
2022/09/11 03:09:18;;;;;;;2.65;2.42;;;;;;;;;;5037670;28;20129;-82
2022/09/11 03:11:46;;;;;;;2.33;1.70;;;;;;;;;;5038741;28;20049;-82
2022/09/11 03:14:14;;;;;;;2.00;1.85;;;;;;;;;;5038204;28;20053;-82
2022/09/11 03:16:42;;;;;;;2.30;2.10;;;;;;;;;;5039037;28;20046;-82
2022/09/11 03:19:10;;;;;;;2.17;2.08;;;;;;;;;;5037384;28;20046;-82
2022/09/11 03:21:37;;;;;;;1.75;1.70;;;;;;;;;;5037665;28;20056;-82
2022/09/11 03:24:05;;;;;;;1.90;1.80;;;;;;;;;;5038461;28;20052;-82
2022/09/11 03:26:32;;;;;;;1.80;1.70;;;;;;;;;;5037498;28;20050;-81
2022/09/11 03:29:00;;;;;;;3.55;1.80;;;;;;;;;;5037137;28;20049;-81
2022/09/11 03:31:27;;;;;;;3.70;2.20;;;;;;;;;;5037220;28;20053;-82
2022/09/11 03:33:55;;;;;;;2.75;2.33;;;;;;;;;;5038453;28;20049;-82
2022/09/11 03:36:22;;;;;;;4.35;2.35;;;;;;;;;;5037646;28;20048;-82
2022/09/11 03:38:50;;;;;;;3.13;2.70;;;;;;;;;;5037646;28;20496;-82
2022/09/11 03:41:17;;;;;;;3.15;2.95;;;;;;;;;;5037523;28;20049;-82
2022/09/11 03:43:44;;;;;;;4.40;3.42;;;;;;;;;;5038652;28;20045;-82
2022/09/11 03:46:11;;;;;;;3.40;3.20;;;;;;;;;;5037999;28;20049;-82
2022/09/11 03:48:38;;;;;;;3.22;2.83;;;;;;;;;;5037578;28;20137;-82
2022/09/11 03:51:05;;;;;;;3.15;2.92;;;;;;;;;;5037521;28;20053;-81
2022/09/11 03:53:32;;;;;;;4.90;3.20;;;;;;;;;;5037456;28;20071;-82
2022/09/11 03:56:00;;;;;;;5.20;3.72;;;;;;;;;;5038472;28;20133;-81
2022/09/11 03:58:27;;;;;;;5.65;4.60;;;;;;;;;;5036734;28;20106;-82
2022/09/11 04:00:54;;;;;;;13.05;6.13;;;;;;;;;;5036884;28;20049;-82
2022/09/11 04:03:22;;;;;;;11.40;7.10;;;;;;;;;;5036541;28;20060;-83
2022/09/11 04:05:56;;;;;;;8.18;6.78;;;;;;;;;;5036425;28;20056;-82
2022/09/11 04:08:23;;;;;;;3.78;3.00;;;;;;;;;;5035311;28;20057;-82
2022/09/11 04:10:57;;;;;;;2.38;2.25;;;;;;;;;;5038388;28;20069;-82
2022/09/11 04:13:24;;;;;;;;;;;;;;;;;;5039227;28;20500;-83
2022/09/11 04:15:51;;;;;;;4.00;3.30;;;;;;;;;;5038788;28;19927;-82
2022/09/11 04:18:18;;;;;;;3.35;3.15;;;;;;;;;;5037729;28;20049;-83
2022/09/11 04:20:45;;;;;;;4.68;2.45;;;;;;;;;;5038516;28;20045;-82
2022/09/11 04:23:13;;;;;;;2.95;2.78;;;;;;;;;;5035922;28;20402;-82
2022/09/11 04:25:40;;;;;;;2.80;2.60;;;;;;;;;;5038833;28;20053;-82
2022/09/11 04:28:07;;;;;;;2.78;2.53;;;;;;;;;;5039297;28;20049;-82
2022/09/11 04:30:37;;;;;;;2.20;2.08;;;;;;;;;;5038156;28;20060;-82
2022/09/11 04:33:04;;;;;;;3.22;2.13;;;;;;;;;;5038751;28;20089;-82
2022/09/11 04:35:32;;;;;;;3.53;2.30;;;;;;;;;;5038433;28;20049;-82
2022/09/11 04:37:59;;;;;;;3.42;3.00;;;;;;;;;;5039590;28;20132;-82
2022/09/11 04:40:26;;;;;;;2.78;2.58;;;;;;;;;;5039117;28;20045;-83
2022/09/11 04:42:53;;;;;;;2.92;2.60;;;;;;;;;;5042973;28;20077;-83
2022/09/11 04:45:20;;;;;;;4.22;2.72;;;;;;;;;;5043554;28;20428;-82
2022/09/11 04:47:48;;;;;;;3.05;2.72;;;;;;;;;;5042945;28;20057;-81
2022/09/11 04:50:15;;;;;;;9.02;3.58;;;;;;;;;;5043327;28;20059;-82
2022/09/11 04:52:43;;;;;;;3.08;2.88;;;;;;;;;;5042966;28;20046;-83
2022/09/11 04:55:11;;;;;;;6.43;3.75;;;;;;;;;;5042904;28;20046;-83
2022/09/11 04:57:38;;;;;;;5.30;3.70;;;;;;;;;;5043224;28;20075;-82
2022/09/11 05:00:05;;;;;;;8.10;3.88;;;;;;;;;;5042940;28;20056;-83
2022/09/11 05:02:33;;;;;;;3.72;3.40;;;;;;;;;;5043450;28;20112;-82
2022/09/11 05:05:00;;;;;;;3.25;2.95;;;;;;;;;;5042781;28;20045;-82
2022/09/11 05:07:28;;;;;;;3.05;2.85;;;;;;;;;;5041519;28;20109;-82
2022/09/11 05:09:55;;;;;;;3.03;2.83;;;;;;;;;;5042882;28;20049;-82
2022/09/11 05:12:22;;;;;;;3.70;3.40;;;;;;;;;;5042179;28;20055;-82
2022/09/11 05:14:50;;;;;;;3.05;2.85;;;;;;;;;;5041734;28;20080;-82
2022/09/11 05:17:17;;;;;;;3.33;2.97;;;;;;;;;;5042431;28;20368;-82
2022/09/11 05:19:44;;;;;;;3.55;3.25;;;;;;;;;;5041910;28;20140;-81
2022/09/11 05:22:11;;;;;;;4.60;4.00;;;;;;;;;;5038211;28;20054;-82
2022/09/11 05:24:39;;;;;;;7.35;3.72;;;;;;;;;;5038773;28;20056;-82
2022/09/11 05:27:07;;;;;;;3.92;3.22;;;;;;;;;;5022966;28;20057;-82
2022/09/11 05:29:34;;;;;;;5.53;3.75;;;;;;;;;;5039228;28;20071;-82
2022/09/11 05:32:02;;;;;;;4.55;4.20;;;;;;;;;;5038548;28;20053;-81
2022/09/11 05:34:29;;;;;;;8.02;5.50;;;;;;;;;;5038397;28;20428;-82
2022/09/11 05:36:56;;;;;;;9.23;5.72;;;;;;;;;;5022523;28;20046;-82
2022/09/11 05:39:24;;;;;;;7.65;5.60;;;;;;;;;;5037749;28;20064;-83
2022/09/11 05:41:51;;;;;;;6.32;5.70;;;;;;;;;;5022453;28;20045;-82
2022/09/11 05:44:19;;;;;;;11.77;6.28;;;;;;;;;;5022890;28;20046;-81
2022/09/11 05:46:47;;;;;;;6.03;5.35;;;;;;;;;;5036963;28;20054;-82
2022/09/11 05:49:14;;;;;;;8.35;5.68;;;;;;;;;;5037323;28;20060;-82
2022/09/11 05:51:41;;;;;;;6.47;5.00;;;;;;;;;;5036349;28;20057;-82
2022/09/11 05:54:09;;;;;;;15.18;6.43;;;;;;;;;;5037530;28;20053;-82
2022/09/11 05:56:36;;;;;;;8.25;4.85;;;;;;;;;;5037249;28;20046;-82
2022/09/11 05:59:03;;;;;;;9.25;5.65;;;;;;;;;;5037625;28;20046;-81
2022/09/11 06:01:31;;;;;;;9.75;6.10;;;;;;;;;;5037697;28;20054;-82
2022/09/11 06:03:58;;;;;;;10.88;5.50;;;;;;;;;;5037951;28;20454;-82
2022/09/11 06:06:25;;;;;;;11.13;5.85;;;;;;;;;;5036607;28;20054;-82
2022/09/11 06:08:52;;;;;;;5.80;4.82;;;;;;;;;;5037583;28;20046;-82
2022/09/11 06:11:21;;;;;;;10.13;5.97;;;;;;;;;;5037581;28;20061;-81
2022/09/11 06:13:48;;;;;;;7.10;5.00;;;;;;;;;;5037467;28;20084;-82
2022/09/11 06:16:19;;;;;;;5.43;4.88;;;;;;;;;;5036521;28;20140;-82
2022/09/11 06:18:47;;;;;;;9.10;5.50;;;;;;;;;;5022216;28;20073;-82
2022/09/11 06:21:18;;;;;;;5.40;4.90;;;;;;;;;;5023777;28;20053;-82
2022/09/11 06:23:47;;;;;;;9.25;5.20;;;;;;;;;;5039239;28;20041;-81
2022/09/11 06:26:15;;;;;;;7.80;5.05;;;;;;;;;;5040560;28;20057;-81
2022/09/11 06:28:42;;;;;;;8.43;4.65;;;;;;;;;;5039859;28;20064;-82
2022/09/11 06:31:11;;;;;;;5.57;4.70;;;;;;;;;;5039608;28;20485;-82
2022/09/11 06:33:39;;;;;;;9.35;5.68;;;;;;;;;;5038636;28;20049;-82
2022/09/11 06:36:09;;;;;;;14.85;5.88;;;;;;;;;;5037410;28;20077;-83
2022/09/11 06:38:40;;;;;;;9.38;5.93;;;;;;;;;;5038268;28;20045;-81
2022/09/11 06:41:11;;;;;;;7.75;5.53;;;;;;;;;;5038343;28;20052;-82
2022/09/11 06:43:38;;;;;;;6.80;5.63;;;;;;;;;;5038609;28;20056;-82
2022/09/11 06:46:06;;;;;;;7.10;6.05;;;;;;;;;;5039544;28;20056;-82
2022/09/11 06:48:33;;;;;;;6.65;5.95;;;;;;;;;;5037847;28;20133;-82
2022/09/11 06:51:04;;;;;;;6.25;5.75;;;;;;;;;;5038689;28;20496;-82
2022/09/11 06:53:31;;;;;;;6.00;5.28;;;;;;;;;;5038127;28;20064;-82
2022/09/11 06:55:59;;;;;;;8.77;5.93;;;;;;;;;;5037234;28;20056;-83
2022/09/11 06:58:28;;;;;;;5.55;5.15;;;;;;;;;;5038068;28;20060;-81
2022/09/11 07:00:56;;;;;;;6.15;5.55;;;;;;;;;;5038971;28;20053;-82
2022/09/11 07:03:23;;;;;;;6.00;5.40;;;;;;;;;;5038077;28;20049;-82
2022/09/11 07:05:50;;;;;;;7.85;6.82;;;;;;;;;;5036900;28;20050;-83
2022/09/11 07:08:18;;;;;;;6.22;5.70;;;;;;;;;;5037009;28;20053;-83
2022/09/11 07:10:50;;;;;;;7.93;6.97;;;;;;;;;;5036656;28;20081;-83
2022/09/11 07:13:18;;;;;;;7.20;6.50;;;;;;;;;;5037135;28;20049;-82
2022/09/11 07:15:48;;;;;;;6.40;5.85;;;;;;;;;;5037138;28;20049;-83
2022/09/11 07:18:16;;;;;;;8.18;7.22;;;;;;;;;;5036905;28;20045;-83
2022/09/11 07:20:50;;;;;;;7.57;6.88;;;;;;;;;;5036797;28;20050;-83
2022/09/11 07:23:18;;;;;;;8.55;7.50;;;;;;;;;;5014094;28;20046;-83
2022/09/11 07:25:45;;;;;;;8.10;6.97;;;;;;;;;;5017255;28;20056;-83
2022/09/11 07:28:12;;;;;;;8.50;7.70;;;;;;;;;;5016743;28;20520;-83
2022/09/11 07:30:39;;;;;;;8.40;7.07;;;;;;;;;;5015645;28;20104;-83
2022/09/11 07:33:06;;;;;;;9.00;7.43;;;;;;;;;;5016516;28;20077;-83
2022/09/11 07:35:36;;;;;;;7.28;6.68;;;;;;;;;;5014821;28;20057;-83
2022/09/11 07:38:03;;;;;;;7.43;6.78;;;;;;;;;;5015870;28;20057;-83
2022/09/11 07:40:30;;;;;;;7.35;6.65;;;;;;;;;;5015065;28;20496;-83
2022/09/11 07:42:58;;;;;;;7.50;6.68;;;;;;;;;;5015033;28;20068;-83
2022/09/11 07:45:26;;;;;;;7.93;7.15;;;;;;;;;;5015690;28;20079;-83
2022/09/11 07:47:54;;;;;;;8.15;6.88;;;;;;;;;;5014847;28;20076;-83
2022/09/11 07:50:23;;;;;;;6.80;6.20;;;;;;;;;;5013904;28;20428;-83
2022/09/11 07:52:50;;;;;;;8.18;7.32;;;;;;;;;;5014352;28;20058;-83
2022/09/11 07:55:17;;;;;;;7.13;6.43;;;;;;;;;;5016404;28;20398;-84
2022/09/11 07:57:45;;;;;;;7.65;6.95;;;;;;;;;;5019241;28;20045;-83
2022/09/11 08:00:15;;;;;;;10.10;7.80;;;;;;;;;;5019292;28;20092;-83
2022/09/11 08:02:42;;;;;;;6.68;6.07;;;;;;;;;;5018702;28;20042;-82
2022/09/11 08:05:09;;;;;;;7.90;6.18;;;;;;;;;;5017497;28;20445;-83
2022/09/11 08:07:37;;;;;;;7.53;6.82;;;;;;;;;;5013722;28;20053;-83
2022/09/11 08:10:04;;;;;;;8.43;7.20;;;;;;;;;;5013900;28;20505;-81
2022/09/11 08:12:52;;;;;;;7.85;7.07;;;;;;;;;;5013623;28;20054;-83
2022/09/11 08:15:26;;;;;;;;;;;;;;;;;;5012843;28;20149;-82
2022/09/11 08:17:53;;;;;;;33.55;8.90;;;;;;;;;;5017673;28;19921;-83
2022/09/11 08:20:20;;;;;;;10.82;9.45;;;;;;;;;;5022408;28;20049;-83
2022/09/11 08:22:47;;;;;;;8.25;7.45;;;;;;;;;;5019734;28;20507;-83
2022/09/11 08:25:15;;;;;;;9.90;7.45;;;;;;;;;;5026008;28;20052;-83
2022/09/11 08:27:42;;;;;;;7.10;6.40;;;;;;;;;;5025701;28;20046;-83
2022/09/11 08:30:09;;;;;;;10.82;8.20;;;;;;;;;;5019637;28;20149;-83
2022/09/11 08:32:38;;;;;;;9.05;8.23;;;;;;;;;;5020457;28;20050;-83
2022/09/11 08:35:06;;;;;;;7.70;7.00;;;;;;;;;;5017378;28;20046;-83
2022/09/11 08:37:33;;;;;;;8.63;7.47;;;;;;;;;;5018292;28;20061;-81
2022/09/11 08:40:00;;;;;;;8.20;7.35;;;;;;;;;;5019294;28;20113;-83
2022/09/11 08:42:28;;;;;;;8.02;7.43;;;;;;;;;;5017418;28;20489;-83
2022/09/11 08:44:58;;;;;;;8.45;7.68;;;;;;;;;;5018117;28;20125;-83
2022/09/11 08:47:26;;;;;;;8.10;7.47;;;;;;;;;;5018734;28;20049;-84
2022/09/11 08:49:59;;;;;;;8.40;7.40;;;;;;;;;;5019719;28;20061;-82
2022/09/11 08:52:26;;;;;;;8.90;8.05;;;;;;;;;;5018843;28;20092;-83
2022/09/11 08:54:56;;;;;;;8.15;7.30;;;;;;;;;;5020731;28;20172;-83
2022/09/11 08:57:27;;;;;;;9.07;7.15;;;;;;;;;;5021778;28;20570;-84
2022/09/11 08:59:55;;;;;;;8.30;7.50;;;;;;;;;;5018725;28;20045;-83
2022/09/11 09:02:26;;;;;;;6.93;6.32;;;;;;;;;;5016954;28;20049;-84
2022/09/11 09:05:13;;;;;;;7.45;6.78;;;;;;;;;;5017650;28;20049;-83
2022/09/11 09:07:56;;;;;;;8.45;7.07;;;;;;;;;;5019515;28;20056;-84
2022/09/11 09:10:26;;;;;;;8.63;7.40;;;;;;;;;;5017591;28;20054;-83
2022/09/11 09:12:59;;;;;;;7.63;6.82;;;;;;;;;;5021795;28;20060;-83
2022/09/11 09:15:29;;;;;;;7.38;6.70;;;;;;;;;;5020271;28;20065;-84
2022/09/11 09:17:59;;;;;;;6.38;5.95;;;;;;;;;;5018230;28;20042;-84
2022/09/11 09:20:29;;;;;;;8.75;7.90;;;;;;;;;;5016862;28;20041;-81
2022/09/11 09:22:58;;;;;;;11.63;10.52;;;;;;;;;;5017923;28;20054;-81
2022/09/11 09:25:26;;;;;;;11.52;10.32;;;;;;;;;;5016494;28;20516;-82
2022/09/11 09:28:00;;;;;;;11.18;8.98;;;;;;;;;;5015951;28;20060;-82
2022/09/11 09:30:28;;;;;;;9.80;8.98;;;;;;;;;;5017336;28;20516;-82
2022/09/11 09:32:58;;;;;;;8.75;7.78;;;;;;;;;;5015763;28;20060;-82
2022/09/11 09:35:29;;;;;;;11.43;8.52;;;;;;;;;;5016550;28;20054;-80
2022/09/11 09:37:56;;;;;;;8.43;7.63;;;;;;;;;;5015309;28;20128;-82
2022/09/11 09:40:25;;;;;;;7.93;7.07;;;;;;;;;;5016670;28;20050;-82
2022/09/11 09:43:18;;;;;;;10.48;8.18;;;;;;;;;;5016177;28;20042;-81
2022/09/11 09:45:54;;;;;;;8.33;7.57;;;;;;;;;;5012600;28;20417;-82
2022/09/11 09:48:22;;;;;;;7.55;6.70;;;;;;;;;;5013625;28;20096;-81
2022/09/11 09:50:49;;;;;;;7.72;7.00;;;;;;;;;;5015182;28;20054;-81
2022/09/11 09:53:21;;;;;;;7.53;6.82;;;;;;;;;;5015176;28;20501;-82
2022/09/11 09:55:51;;;;;;;6.07;5.60;;;;;;;;;;5014031;28;20547;-82
2022/09/11 09:58:18;;;;;;;6.10;5.60;;;;;;;;;;5015582;28;20053;-82
2022/09/11 10:00:46;;;;;;;5.72;5.00;;;;;;;;;;5018622;28;20058;-82
2022/09/11 10:03:19;;;;;;;5.90;5.38;;;;;;;;;;5029014;28;20507;-83
2022/09/11 10:05:46;;;;;;;5.47;5.07;;;;;;;;;;5020990;28;20046;-83
2022/09/11 10:08:26;;;;;;;6.85;4.65;;;;;;;;;;5017960;28;20052;-83
2022/09/11 10:10:56;;;;;;;5.25;4.88;;;;;;;;;;5017300;28;20050;-83
2022/09/11 10:13:26;;;;;;;5.65;4.80;;;;;;;;;;5016987;28;20050;-83
2022/09/11 10:15:55;;;;;;;5.18;4.00;;;;;;;;;;5017143;28;20046;-84
2022/09/11 10:18:32;;;;;;;5.13;3.72;;;;;;;;;;5017177;28;20049;-83
2022/09/11 10:21:12;;;;;;;4.07;3.88;;;;;;;;;;5016197;28;20042;-84
2022/09/11 10:23:45;;;;;;;3.75;3.45;;;;;;;;;;5016464;28;20046;-83
2022/09/11 10:26:12;;;;;;;;;;;;;;;;;;5017559;28;20049;-83
2022/09/11 10:28:39;;;;;;;4.72;3.65;;;;;;;;;;5015904;28;19921;-83
2022/09/11 10:31:07;;;;;;;4.18;3.85;;;;;;;;;;5015989;28;20141;-83
2022/09/11 10:33:36;;;;;;;4.75;4.35;;;;;;;;;;5018533;28;20077;-83
2022/09/11 10:36:04;;;;;;;4.40;4.10;;;;;;;;;;5017818;28;20129;-81
2022/09/11 10:38:44;;;;;;;6.25;4.80;;;;;;;;;;5016760;28;20057;-84
2022/09/11 10:41:11;;;;;;;5.18;4.78;;;;;;;;;;5017497;28;20050;-83
2022/09/11 10:43:59;;;;;;;4.88;4.47;;;;;;;;;;5018651;28;20052;-83
2022/09/11 10:46:31;;;;;;;4.28;3.88;;;;;;;;;;5018323;28;20114;-83
2022/09/11 10:49:07;;;;;;;4.80;4.50;;;;;;;;;;5017967;28;20070;-82
2022/09/11 10:51:35;;;;;;;7.80;5.18;;;;;;;;;;5016984;28;20042;-83
2022/09/11 10:54:06;;;;;;;4.55;4.20;;;;;;;;;;5016269;28;20515;-83
2022/09/11 10:56:38;;;;;;;4.30;3.65;;;;;;;;;;5017143;28;20045;-84
2022/09/11 10:59:06;;;;;;;4.40;3.72;;;;;;;;;;5015108;28;20046;-84
2022/09/11 11:01:33;;;;;;;3.53;3.22;;;;;;;;;;5015536;28;20046;-84
2022/09/11 11:04:00;;;;;;;7.07;4.55;;;;;;;;;;5015837;28;20049;-83
2022/09/11 11:06:41;;;;;;;4.78;3.05;;;;;;;;;;5015656;28;20054;-83
2022/09/11 11:09:08;;;;;;;11.35;2.90;;;;;;;;;;5016923;28;20052;-83
2022/09/11 11:12:00;;;;;;;2.92;2.70;;;;;;;;;;5015228;28;20390;-83
2022/09/11 11:14:31;;;;;;;5.97;3.13;;;;;;;;;;5016819;28;20046;-83
2022/09/11 11:17:10;;;;;;;4.80;3.20;;;;;;;;;;5016683;28;20052;-82
2022/09/11 11:19:47;;;;;;;3.42;3.17;;;;;;;;;;5017105;28;20054;-83
2022/09/11 11:22:21;;;;;;;3.67;3.40;;;;;;;;;;5014193;28;20050;-83
2022/09/11 11:24:55;;;;;;;5.05;3.97;;;;;;;;;;5013012;28;20050;-83
2022/09/11 11:27:43;;;;;;;5.93;5.38;;;;;;;;;;5012918;28;20481;-82
2022/09/11 11:30:10;;;;;;;6.25;5.65;;;;;;;;;;5007353;28;20057;-83
2022/09/11 11:32:57;;;;;;;5.70;5.20;;;;;;;;;;5015013;28;20120;-82
2022/09/11 11:35:30;;;;;;;4.28;3.97;;;;;;;;;;5014858;28;20056;-82
2022/09/11 11:38:02;;;;;;;4.03;3.00;;;;;;;;;;5014278;28;20050;-82
2022/09/11 11:40:42;;;;;;;3.40;3.20;;;;;;;;;;5015236;28;20049;-82
2022/09/11 11:43:16;;;;;;;3.78;3.47;;;;;;;;;;5014185;28;20564;-83
2022/09/11 11:45:49;;;;;;;4.22;4.03;;;;;;;;;;5016964;28;20076;-83
2022/09/11 11:48:24;;;;;;;3.60;3.30;;;;;;;;;;5020621;28;20045;-83
2022/09/11 11:50:56;;;;;;;4.00;3.70;;;;;;;;;;5017715;28;20391;-81
2022/09/11 11:53:30;;;;;;;4.38;4.03;;;;;;;;;;5019473;28;20064;-81
2022/09/11 11:56:16;;;;;;;4.43;4.10;;;;;;;;;;5019362;28;20056;-82
2022/09/11 11:58:50;;;;;;;4.38;4.07;;;;;;;;;;5020623;28;20058;-81
2022/09/11 12:01:37;;;;;;;4.57;4.18;;;;;;;;;;5017452;28;20130;-81
2022/09/11 12:04:10;;;;;;;5.13;4.82;;;;;;;;;;5019147;28;20392;-82
2022/09/11 12:06:37;;;;;;;5.38;4.88;;;;;;;;;;5017621;28;20050;-82
2022/09/11 12:09:04;;;;;;;5.40;5.00;;;;;;;;;;5013101;28;20076;-82
2022/09/11 12:11:32;;;;;;;5.18;4.32;;;;;;;;;;5013809;28;20061;-83
2022/09/11 12:14:00;;;;;;;3.65;3.45;;;;;;;;;;5019350;28;20050;-83
2022/09/11 12:16:37;;;;;;;4.68;4.15;;;;;;;;;;5017345;28;20087;-82
2022/09/11 12:19:24;;;;;;;3.85;3.65;;;;;;;;;;5017833;28;20088;-83
2022/09/11 12:21:51;;;;;;;4.93;3.80;;;;;;;;;;5018077;28;20064;-83
2022/09/11 12:24:42;;;;;;;4.13;3.80;;;;;;;;;;5017468;28;20050;-82
2022/09/11 12:27:28;;;;;;;4.10;3.75;;;;;;;;;;5012058;28;20057;-83
2022/09/11 12:30:06;;;;;;;6.32;4.15;;;;;;;;;;5016743;28;20133;-82
2022/09/11 12:32:41;;;;;;;8.15;4.53;;;;;;;;;;5015611;28;20505;-83
2022/09/11 12:35:20;;;;;;;5.35;4.85;;;;;;;;;;5016343;28;20571;-82
2022/09/11 12:38:08;;;;;;;4.75;4.45;;;;;;;;;;5014414;28;20046;-83
2022/09/11 12:40:38;;;;;;;4.68;4.28;;;;;;;;;;4995375;28;20045;-83
2022/09/11 12:43:19;;;;;;;4.80;4.40;;;;;;;;;;5015165;28;20050;-83
2022/09/11 12:45:47;;;;;;;4.55;4.15;;;;;;;;;;5014193;28;20493;-82
2022/09/11 12:48:16;;;;;;;5.05;4.65;;;;;;;;;;5013722;28;20081;-83
2022/09/11 12:50:50;;;;;;;5.40;4.90;;;;;;;;;;5013964;28;20054;-83
2022/09/11 12:53:22;;;;;;;7.97;4.22;;;;;;;;;;5015286;28;20088;-83
2022/09/11 12:56:00;;;;;;;5.97;4.25;;;;;;;;;;5014834;28;20049;-81
2022/09/11 12:58:30;;;;;;;5.18;3.75;;;;;;;;;;5012842;28;20134;-81
2022/09/11 13:01:19;;;;;;;3.75;3.45;;;;;;;;;;5012424;28;20045;-82
2022/09/11 13:03:49;;;;;;;3.92;3.50;;;;;;;;;;5014457;28;20052;-81
2022/09/11 13:06:16;;;;;;;3.05;2.85;;;;;;;;;;5014566;28;20136;-82
2022/09/11 13:08:49;;;;;;;4.00;3.60;;;;;;;;;;5014856;28;20054;-82
2022/09/11 13:11:35;;;;;;;4.50;4.20;;;;;;;;;;5014779;28;20064;-82
2022/09/11 13:14:03;;;;;;;5.10;4.70;;;;;;;;;;5014677;28;20050;-82
2022/09/11 13:16:33;;;;;;;5.72;5.30;;;;;;;;;;5014534;28;20050;-82
2022/09/11 13:19:15;;;;;;;6.40;5.18;;;;;;;;;;5015729;28;20056;-81
2022/09/11 13:21:44;;;;;;;6.53;5.72;;;;;;;;;;5048625;22;20444;-82
2022/09/11 13:24:30;;;;;;;6.90;6.28;;;;;;;;;;4997442;28;20513;-81
2022/09/11 13:27:03;;;;;;;7.22;6.50;;;;;;;;;;4999314;28;20444;-82
2022/09/11 13:29:30;;;;;;;;;;;;;;;;;;4986455;28;20078;-82
2022/09/11 13:31:59;;;;;;;6.53;6.03;;;;;;;;;;4986126;28;19922;-82
2022/09/11 13:34:28;;;;;;;6.75;6.15;;;;;;;;;;4983527;28;20054;-82
2022/09/11 13:36:57;;;;;;;6.47;5.93;;;;;;;;;;4981442;28;20056;-82
2022/09/11 13:39:26;;;;;;;9.43;6.10;;;;;;;;;;4980640;28;20451;-82
2022/09/11 13:41:57;;;;;;;7.75;5.75;;;;;;;;;;4980311;28;20077;-82
2022/09/11 13:44:30;;;;;;;6.28;5.80;;;;;;;;;;4997568;28;20424;-82
2022/09/11 13:46:57;;;;;;;6.32;4.90;;;;;;;;;;4983835;28;20078;-83
2022/09/11 13:49:35;;;;;;;9.68;4.97;;;;;;;;;;5002424;28;20061;-83
2022/09/11 13:52:04;;;;;;;4.70;4.40;;;;;;;;;;5001934;28;20073;-82
2022/09/11 13:54:33;;;;;;;5.30;4.90;;;;;;;;;;4983710;28;20051;-82
2022/09/11 13:57:00;;;;;;;5.22;3.90;;;;;;;;;;4999890;28;20050;-82
2022/09/11 13:59:46;;;;;;;3.90;3.70;;;;;;;;;;4981223;28;20057;-82
2022/09/11 14:02:27;;;;;;;4.13;3.72;;;;;;;;;;4981888;28;20046;-82
2022/09/11 14:05:00;;;;;;;4.13;3.50;;;;;;;;;;4982462;28;20057;-81
2022/09/11 14:07:27;;;;;;;3.78;3.58;;;;;;;;;;4999053;28;20046;-82
2022/09/11 14:10:02;;;;;;;4.20;3.92;;;;;;;;;;4983413;28;20061;-82
2022/09/11 14:12:30;;;;;;;3.90;3.70;;;;;;;;;;4999954;28;20046;-81
2022/09/11 14:15:00;;;;;;;4.20;3.83;;;;;;;;;;4998959;28;20050;-81
2022/09/11 14:17:28;;;;;;;4.82;4.32;;;;;;;;;;4999715;28;20042;-82
2022/09/11 14:19:58;;;;;;;4.47;4.18;;;;;;;;;;4982394;28;20054;-82
2022/09/11 14:22:29;;;;;;;4.78;4.47;;;;;;;;;;4981588;28;20461;-82
2022/09/11 14:25:03;;;;;;;5.97;5.32;;;;;;;;;;4981614;28;20109;-81
2022/09/11 14:27:31;;;;;;;4.88;4.57;;;;;;;;;;4980986;28;20050;-81
2022/09/11 14:29:59;;;;;;;4.60;4.35;;;;;;;;;;4982211;28;20058;-81
2022/09/11 14:32:38;;;;;;;4.30;4.00;;;;;;;;;;4983534;28;20049;-82
2022/09/11 14:35:08;;;;;;;3.88;3.47;;;;;;;;;;4983466;28;20083;-81
2022/09/11 14:37:39;;;;;;;4.57;4.05;;;;;;;;;;4981042;28;20417;-82
2022/09/11 14:40:13;;;;;;;3.90;3.70;;;;;;;;;;4984599;28;20053;-82
2022/09/11 14:42:41;;;;;;;3.78;3.47;;;;;;;;;;4983021;28;20046;-82
2022/09/11 14:45:17;;;;;;;4.30;3.05;;;;;;;;;;4983839;28;20055;-82
2022/09/11 14:47:45;;;;;;;3.20;3.00;;;;;;;;;;4998520;28;20056;-82
2022/09/11 14:50:12;;;;;;;3.60;3.30;;;;;;;;;;4981566;28;20062;-82
2022/09/11 14:52:41;;;;;;;4.28;3.83;;;;;;;;;;4996872;28;20109;-82
2022/09/11 14:55:15;;;;;;;2.90;2.80;;;;;;;;;;4991423;28;20060;-83
2022/09/11 14:57:42;;;;;;;3.25;3.05;;;;;;;;;;4988337;28;20046;-83
2022/09/11 15:00:10;;;;;;;2.90;2.70;;;;;;;;;;4987322;28;20141;-82
2022/09/11 15:02:38;;;;;;;2.85;2.65;;;;;;;;;;5003502;28;20054;-83
2022/09/11 15:05:06;;;;;;;2.83;2.22;;;;;;;;;;4984888;28;20046;-83